Time;durP1;ratioP1;P1;durP2;ratioP2;P2;SDS_P1;SDS_P2;PMS_P1;PMS_P2;Temp;Humidity;BMP_temperature;BMP_pressure;BME280_temperature;BME280_humidity;BME280_pressure;Samples;Min_cycle;Max_cycle;Signal;HPM_P1;HPM_P2
2022/02/18 00:01:08;;;;;;;11.77;4.90;;;7.00;99.90;;;;;;5077838;28;20457;-60
2022/02/18 00:03:37;;;;;;;14.57;5.33;;;7.00;99.90;;;;;;5077473;28;20465;-59
2022/02/18 00:06:07;;;;;;;12.77;5.47;;;7.00;99.90;;;;;;5078218;28;20468;-59
2022/02/18 00:08:34;;;;;;;14.67;6.07;;;7.00;99.90;;;;;;5076523;28;20462;-57
2022/02/18 00:11:01;;;;;;;19.20;6.40;;;7.00;1.00;;;;;;5077302;28;20485;-60
2022/02/18 00:13:29;;;;;;;26.13;6.20;;;6.90;1.00;;;;;;5077441;28;20889;-60
2022/02/18 00:15:56;;;;;;;17.00;6.67;;;6.90;1.00;;;;;;5077783;28;20468;-58
2022/02/18 00:18:23;;;;;;;15.07;6.80;;;6.90;1.00;;;;;;5078151;28;20523;-59
2022/02/18 00:20:50;;;;;;;14.53;6.17;;;6.90;1.00;;;;;;5076643;28;20428;-59
2022/02/18 00:23:18;;;;;;;17.60;7.30;;;6.90;11.60;;;;;;5077435;28;20472;-59
2022/02/18 00:25:48;;;;;;;15.23;5.50;;;6.90;99.90;;;;;;5077305;28;20506;-59
2022/02/18 00:28:17;;;;;;;19.80;6.73;;;6.80;99.90;;;;;;5078018;28;20519;-59
2022/02/18 00:30:44;;;;;;;17.50;6.13;;;6.80;99.90;;;;;;5076643;28;20472;-58
2022/02/18 00:33:11;;;;;;;18.60;6.70;;;6.70;1.00;;;;;;5077594;28;20467;-59
2022/02/18 00:35:38;;;;;;;18.63;6.23;;;6.70;1.00;;;;;;5077178;28;20472;-58
2022/02/18 00:38:05;;;;;;;18.57;6.20;;;6.70;1.00;;;;;;5077501;28;20461;-54
2022/02/18 00:40:36;;;;;;;12.87;5.40;;;6.70;1.00;;;;;;5076942;28;20802;-59
2022/02/18 00:43:04;;;;;;;15.57;5.70;;;6.70;1.00;;;;;;5077524;28;20519;-60
2022/02/18 00:45:31;;;;;;;12.80;5.50;;;6.60;99.90;;;;;;5077445;28;20471;-57
2022/02/18 00:47:58;;;;;;;19.23;6.87;;;6.70;1.00;;;;;;5076808;28;20518;-58
2022/02/18 00:50:25;;;;;;;21.37;8.73;;;6.60;99.90;;;;;;5077330;28;20489;-59
2022/02/18 00:52:53;;;;;;;20.43;7.03;;;6.60;1.00;;;;;;5077450;28;20564;-58
2022/02/18 00:55:23;;;;;;;17.03;6.17;;;6.60;1.00;;;;;;5077223;28;20751;-56
2022/02/18 00:57:52;;;;;;;14.80;5.90;;;6.60;82.30;;;;;;5076187;28;20485;-55
2022/02/18 01:00:20;;;;;;;18.40;5.40;;;6.60;1.00;;;;;;5077022;28;20898;-59
2022/02/18 01:02:47;;;;;;;22.17;6.97;;;6.50;1.00;;;;;;5076564;28;20465;-56
2022/02/18 01:05:14;;;;;;;18.07;6.77;;;6.60;99.00;;;;;;5077082;28;20514;-59
2022/02/18 01:07:42;;;;;;;21.77;5.97;;;6.50;26.30;;;;;;5076505;28;20441;-60
2022/02/18 01:10:11;;;;;;;18.43;6.70;;;6.50;7.30;;;;;;5077061;28;20546;-57
2022/02/18 01:12:39;;;;;;;16.67;5.00;;;6.50;99.90;;;;;;5076544;28;20465;-60
2022/02/18 01:15:09;;;;;;;21.87;6.77;;;6.50;99.90;;;;;;5076900;28;20461;-58
2022/02/18 01:17:36;;;;;;;17.27;7.10;;;6.60;99.90;;;;;;5076721;28;20461;-59
2022/02/18 01:20:04;;;;;;;14.47;5.33;;;6.50;1.00;;;;;;5076930;28;20759;-59
2022/02/18 01:22:34;;;;;;;17.77;5.10;;;6.60;1.00;;;;;;5076792;28;20539;-59
2022/02/18 01:25:01;;;;;;;20.57;6.77;;;6.50;1.00;;;;;;5076995;28;20461;-59
2022/02/18 01:27:28;;;;;;;16.57;6.13;;;6.50;1.00;;;;;;5077069;28;20461;-58
2022/02/18 01:29:55;;;;;;;21.67;6.23;;;6.50;1.00;;;;;;5076317;28;20821;-58
2022/02/18 01:32:23;;;;;;;20.93;4.77;;;6.50;1.00;;;;;;5076886;28;20435;-56
2022/02/18 01:34:50;;;;;;;17.70;6.57;;;6.60;1.00;;;;;;5076636;28;20469;-55
2022/02/18 01:37:17;;;;;;;22.63;6.10;;;6.60;1.00;;;;;;5076758;28;20820;-58
2022/02/18 01:39:44;;;;;;;27.00;7.30;;;6.70;99.90;;;;;;5076367;28;20511;-59
2022/02/18 01:42:11;;;;;;;18.20;6.00;;;6.60;1.00;;;;;;5078915;28;20461;-57
2022/02/18 01:44:40;;;;;;;21.60;6.30;;;6.60;1.00;;;;;;5080388;28;20526;-57
2022/02/18 01:47:13;;;;;;;19.37;7.47;;;6.60;99.90;;;;;;5080647;28;20469;-59
2022/02/18 01:49:42;;;;;;;17.70;5.83;;;6.60;99.90;;;;;;5080026;28;20497;-54
2022/02/18 01:52:09;;;;;;;18.00;4.73;;;6.60;1.00;;;;;;5080459;28;21021;-55
2022/02/18 01:54:36;;;;;;;14.90;6.13;;;6.60;99.90;;;;;;5079748;28;20461;-57
2022/02/18 01:57:04;;;;;;;24.23;5.57;;;6.60;1.00;;;;;;5080192;28;20461;-53
2022/02/18 01:59:31;;;;;;;15.43;4.97;;;6.60;28.00;;;;;;5079837;28;20511;-59
2022/02/18 02:01:59;;;;;;;21.03;7.13;;;6.60;17.30;;;;;;5080597;28;20492;-60
2022/02/18 02:04:27;;;;;;;18.70;5.60;;;6.60;1.00;;;;;;5079741;28;20563;-60
2022/02/18 02:07:02;;;;;;;22.87;5.50;;;6.60;1.00;;;;;;5079928;28;20436;-56
2022/02/18 02:09:30;;;;;;;19.60;4.87;;;6.60;1.00;;;;;;5079929;28;20528;-57
2022/02/18 02:11:57;;;;;;;17.60;6.80;;;6.60;1.00;;;;;;5079369;28;20496;-60
2022/02/18 02:14:24;;;;;;;15.77;5.00;;;6.60;1.00;;;;;;5080199;28;20462;-55
2022/02/18 02:16:51;;;;;;;20.23;5.00;;;6.70;1.00;;;;;;5079738;28;20460;-60
2022/02/18 02:19:18;;;;;;;20.73;6.00;;;6.70;1.00;;;;;;5081690;28;20464;-58
2022/02/18 02:21:50;;;;;;;21.70;5.80;;;6.70;1.00;;;;;;5090147;28;20464;-56
2022/02/18 02:24:19;;;;;;;25.93;5.70;;;6.70;1.00;;;;;;5080193;28;20519;-59
2022/02/18 02:26:46;;;;;;;17.97;6.30;;;6.70;1.00;;;;;;5079626;28;20567;-55
2022/02/18 02:29:13;;;;;;;26.00;6.37;;;6.70;1.00;;;;;;5079996;28;20890;-59
2022/02/18 02:31:41;;;;;;;18.10;4.93;;;6.70;1.00;;;;;;5078602;28;20526;-58
2022/02/18 02:34:08;;;;;;;18.60;5.43;;;6.60;1.00;;;;;;5079873;28;20898;-60
2022/02/18 02:36:36;;;;;;;25.77;7.00;;;6.60;1.00;;;;;;5079018;28;20469;-57
2022/02/18 02:39:05;;;;;;;17.53;6.63;;;6.60;1.00;;;;;;5079696;28;20461;-57
2022/02/18 02:41:34;;;;;;;17.07;7.73;;;6.60;1.00;;;;;;5079378;28;20891;-60
2022/02/18 02:44:01;;;;;;;11.10;5.23;;;6.60;1.00;;;;;;5078439;28;20886;-58
2022/02/18 02:46:28;;;;;;;22.70;6.00;;;6.60;1.00;;;;;;5079089;28;20547;-58
2022/02/18 02:48:55;;;;;;;17.00;6.67;;;6.60;1.00;;;;;;5078907;28;20468;-58
2022/02/18 02:51:22;;;;;;;21.23;5.20;;;6.60;1.00;;;;;;5079482;28;20840;-59
2022/02/18 02:53:49;;;;;;;19.20;6.30;;;6.50;1.00;;;;;;5078145;28;20531;-55
2022/02/18 02:56:17;;;;;;;17.17;5.70;;;6.50;1.00;;;;;;5079648;28;20480;-58
2022/02/18 02:58:45;;;;;;;23.07;6.47;;;6.50;1.00;;;;;;5078121;28;20546;-58
2022/02/18 03:01:12;;;;;;;22.20;6.03;;;6.50;1.00;;;;;;5079483;28;20507;-60
2022/02/18 03:03:39;;;;;;;22.13;5.60;;;6.50;37.20;;;;;;5079094;28;20563;-59
2022/02/18 03:06:07;;;;;;;28.13;6.80;;;6.40;53.60;;;;;;5079405;28;20494;-58
2022/02/18 03:08:34;;;;;;;17.20;5.13;;;6.40;99.90;;;;;;5078233;28;20516;-53
2022/02/18 03:11:16;;;;;;;27.47;5.60;;;6.40;99.90;;;;;;5078934;28;20803;-59
2022/02/18 03:13:46;;;;;;;16.37;5.60;;;6.50;99.90;;;;;;5079069;28;20925;-58
2022/02/18 03:16:13;;;;;;;14.87;5.37;;;6.40;99.90;;;;;;5079189;28;20501;-58
2022/02/18 03:18:40;;;;;;;22.17;5.73;;;6.40;99.90;;;;;;5078267;28;20526;-57
2022/02/18 03:21:07;;;;;;;21.67;5.67;;;6.40;1.00;;;;;;5092901;28;20452;-57
2022/02/18 03:23:35;;;;;;;24.00;6.60;;;6.50;99.90;;;;;;5093589;28;20580;-58
2022/02/18 03:26:02;;;;;;;23.70;6.57;;;6.40;99.90;;;;;;5079140;28;20765;-57
2022/02/18 03:28:29;;;;;;;21.77;6.50;;;6.40;99.90;;;;;;5078309;28;20465;-59
2022/02/18 03:30:59;;;;;;;14.93;5.20;;;6.40;99.90;;;;;;5078071;28;20485;-54
2022/02/18 03:33:26;;;;;;;30.13;6.43;;;6.40;99.90;;;;;;5078402;28;20504;-57
2022/02/18 03:35:54;;;;;;;23.13;5.40;;;6.50;99.90;;;;;;5078868;28;20461;-57
2022/02/18 03:38:21;;;;;;;26.60;7.50;;;6.40;99.90;;;;;;5078670;28;20472;-55
2022/02/18 03:40:48;;;;;;;18.73;5.40;;;6.40;99.90;;;;;;5077525;28;20465;-60
2022/02/18 03:43:15;;;;;;;18.30;5.30;;;6.40;1.00;;;;;;5078297;28;20951;-55
2022/02/18 03:45:42;;;;;;;15.70;6.70;;;6.40;1.00;;;;;;5078035;28;20465;-57
2022/02/18 03:48:10;;;;;;;22.20;6.40;;;6.40;1.00;;;;;;5078060;28;20469;-56
2022/02/18 03:50:37;;;;;;;17.90;5.37;;;6.40;1.00;;;;;;5077607;28;20473;-57
2022/02/18 03:53:04;;;;;;;19.87;6.77;;;6.40;99.90;;;;;;5078294;28;20461;-59
2022/02/18 03:55:32;;;;;;;18.50;6.13;;;6.50;99.90;;;;;;5077964;28;20578;-58
2022/02/18 03:57:59;;;;;;;22.07;6.93;;;6.50;99.90;;;;;;5077661;28;21003;-58
2022/02/18 04:00:26;;;;;;;20.03;5.80;;;6.50;99.90;;;;;;5078206;28;20462;-58
2022/02/18 04:02:53;;;;;;;19.80;5.97;;;6.50;99.90;;;;;;5058046;28;20466;-54
2022/02/18 04:05:22;;;;;;;14.53;5.27;;;6.50;99.90;;;;;;5061974;28;20951;-59
2022/02/18 04:07:49;;;;;;;25.63;6.20;;;6.50;61.70;;;;;;5077750;28;20822;-58
2022/02/18 04:10:16;;;;;;;20.80;5.67;;;6.50;54.00;;;;;;5078113;28;20468;-56
2022/02/18 04:12:43;;;;;;;20.57;6.93;;;6.50;35.00;;;;;;5077002;28;20489;-56
2022/02/18 04:15:11;;;;;;;14.70;6.67;;;6.50;1.00;;;;;;5077745;28;20464;-55
2022/02/18 04:17:38;;;;;;;21.70;6.17;;;6.50;1.00;;;;;;5057432;28;20466;-54
2022/02/18 04:20:06;;;;;;;23.33;6.57;;;6.50;1.00;;;;;;5073316;28;20525;-58
2022/02/18 04:22:35;;;;;;;21.77;6.27;;;6.50;1.00;;;;;;5073976;28;20861;-56
2022/02/18 04:25:02;;;;;;;14.47;6.17;;;6.60;1.00;;;;;;5078321;28;20461;-52
2022/02/18 04:27:29;;;;;;;19.57;6.80;;;6.60;1.00;;;;;;5082968;28;20468;-56
2022/02/18 04:29:56;;;;;;;17.97;6.00;;;6.60;99.90;;;;;;5077721;28;20465;-54
2022/02/18 04:32:23;;;;;;;23.23;5.20;;;6.60;99.90;;;;;;5077302;28;20795;-55
2022/02/18 04:34:50;;;;;;;34.00;6.37;;;6.60;99.90;;;;;;5077499;28;20824;-57
2022/02/18 04:37:17;;;;;;;17.20;4.80;;;6.60;99.90;;;;;;5076982;28;20462;-59
2022/02/18 04:39:45;;;;;;;20.90;5.90;;;6.60;99.90;;;;;;5077518;28;20872;-59
2022/02/18 04:42:12;;;;;;;18.80;5.40;;;6.70;99.90;;;;;;5077584;28;20461;-59
2022/02/18 04:44:40;;;;;;;24.73;5.87;;;6.60;99.90;;;;;;5077190;28;20518;-55
2022/02/18 04:47:07;;;;;;;17.53;6.83;;;6.70;99.90;;;;;;5077476;28;20501;-58
2022/02/18 04:49:34;;;;;;;24.07;5.53;;;6.70;99.90;;;;;;5077426;28;20472;-58
2022/02/18 04:52:01;;;;;;;17.80;4.70;;;6.70;95.90;;;;;;5077530;28;20489;-58
2022/02/18 04:54:28;;;;;;;20.13;5.23;;;6.70;71.40;;;;;;5077132;28;20461;-57
2022/02/18 04:56:56;;;;;;;19.07;5.17;;;6.70;70.70;;;;;;5077005;28;20432;-57
2022/02/18 04:59:23;;;;;;;9.63;4.20;;;6.70;14.10;;;;;;5077030;28;20542;-58
2022/02/18 05:01:50;;;;;;;23.67;5.23;;;6.70;1.00;;;;;;5076196;28;20458;-59
2022/02/18 05:04:17;;;;;;;18.33;6.10;;;6.70;1.00;;;;;;5076486;28;20461;-57
2022/02/18 05:06:47;;;;;;;17.57;5.03;;;6.70;1.00;;;;;;5076146;28;20461;-57
2022/02/18 05:09:14;;;;;;;22.90;6.10;;;6.70;1.00;;;;;;5076956;28;20556;-59
2022/02/18 05:11:41;;;;;;;22.80;4.73;;;6.70;1.00;;;;;;5077176;28;20500;-55
2022/02/18 05:14:10;;;;;;;12.93;5.10;;;6.60;1.00;;;;;;5076510;28;20457;-59
2022/02/18 05:16:37;;;;;;;17.80;4.97;;;6.60;1.00;;;;;;5077027;28;20546;-59
2022/02/18 05:19:06;;;;;;;14.13;4.83;;;6.60;1.00;;;;;;5076462;28;20465;-58
2022/02/18 05:21:33;;;;;;;16.37;5.10;;;6.70;1.00;;;;;;5056874;28;20458;-57
2022/02/18 05:24:00;;;;;;;12.80;4.33;;;6.70;1.00;;;;;;5056363;28;20444;-59
2022/02/18 05:26:27;;;;;;;19.20;5.17;;;6.70;1.00;;;;;;5075106;28;20465;-56
2022/02/18 05:28:55;;;;;;;12.13;4.57;;;6.70;1.00;;;;;;5076710;28;20457;-56
2022/02/18 05:31:24;;;;;;;17.63;4.37;;;6.70;1.00;;;;;;5076724;28;20590;-59
2022/02/18 05:33:51;;;;;;;15.43;4.97;;;6.70;1.00;;;;;;5075919;28;20522;-59
2022/02/18 05:36:18;;;;;;;13.30;4.03;;;6.70;1.00;;;;;;5076110;28;20443;-58
2022/02/18 05:38:46;;;;;;;12.70;4.00;;;6.70;1.00;;;;;;5076187;28;20898;-56
2022/02/18 05:41:13;;;;;;;20.23;7.43;;;6.70;1.00;;;;;;5076453;28;20507;-58
2022/02/18 05:43:41;;;;;;;16.07;4.93;;;6.70;1.00;;;;;;5076784;28;20493;-58
2022/02/18 05:46:08;;;;;;;11.67;3.63;;;6.70;1.00;;;;;;5072886;28;20477;-57
2022/02/18 05:48:37;;;;;;;19.60;4.50;;;6.70;1.00;;;;;;5086793;28;20473;-57
2022/02/18 05:51:05;;;;;;;23.07;4.10;;;6.70;1.00;;;;;;5082312;28;20462;-54
2022/02/18 05:53:33;;;;;;;12.90;6.00;;;6.70;1.00;;;;;;5076488;28;20539;-56
2022/02/18 05:56:00;;;;;;;13.07;4.23;;;6.70;1.00;;;;;;5076422;28;21001;-56
2022/02/18 05:58:27;;;;;;;15.83;5.70;;;6.70;1.00;;;;;;5073352;28;20522;-57
2022/02/18 06:00:54;;;;;;;15.37;6.33;;;6.70;1.00;;;;;;5077165;28;20674;-56
2022/02/18 06:03:21;;;;;;;24.30;9.53;;;6.70;1.00;;;;;;5096725;28;20500;-59
2022/02/18 06:05:50;;;;;;;22.50;11.00;;;6.70;1.00;;;;;;5090479;28;20559;-56
2022/02/18 06:08:17;;;;;;;27.17;7.47;;;6.80;1.00;;;;;;5076281;28;20910;-59
2022/02/18 06:10:44;;;;;;;17.57;6.73;;;6.80;1.00;;;;;;5074003;28;20827;-57
2022/02/18 06:13:11;;;;;;;17.53;5.80;;;6.70;1.00;;;;;;5073924;28;20481;-58
2022/02/18 06:15:38;;;;;;;13.47;3.70;;;6.80;1.00;;;;;;5075616;28;20768;-54
2022/02/18 06:18:05;;;;;;;20.33;5.77;;;6.70;1.00;;;;;;5074709;28;20559;-58
2022/02/18 06:20:32;;;;;;;19.60;6.07;;;6.70;1.00;;;;;;5086437;28;20461;-57
2022/02/18 06:23:01;;;;;;;18.20;11.17;;;6.70;1.00;;;;;;5075949;28;20532;-58
2022/02/18 06:25:29;;;;;;;20.53;5.10;;;6.60;1.00;;;;;;5073996;28;20767;-59
2022/02/18 06:28:05;;;;;;;9.53;4.53;;;6.60;35.60;;;;;;5069915;28;20808;-58
2022/02/18 06:30:34;;;;;;;19.63;5.30;;;6.50;90.60;;;;;;5079294;28;20469;-59
2022/02/18 06:33:01;;;;;;;12.40;5.60;;;6.50;99.90;;;;;;5072223;28;20492;-60
2022/02/18 06:35:28;;;;;;;14.10;4.53;;;6.50;99.90;;;;;;5076411;28;20559;-60
2022/02/18 06:37:57;;;;;;;13.37;5.30;;;6.40;1.00;;;;;;5079224;28;20889;-60
2022/02/18 06:40:26;;;;;;;19.23;6.63;;;6.30;1.00;;;;;;5077884;28;20493;-56
2022/02/18 06:42:53;;;;;;;19.57;5.83;;;6.30;99.90;;;;;;5078100;28;20453;-58
2022/02/18 06:45:23;;;;;;;12.13;4.20;;;6.30;1.00;;;;;;5078828;28;20882;-60
2022/02/18 06:47:51;;;;;;;10.07;3.90;;;6.30;99.90;;;;;;5079102;28;20895;-60
2022/02/18 06:50:19;;;;;;;12.83;4.43;;;6.30;1.00;;;;;;5080003;28;20465;-60
2022/02/18 06:52:48;;;;;;;21.97;7.10;;;6.30;99.90;;;;;;5079212;28;20957;-59
2022/02/18 06:55:16;;;;;;;15.63;5.07;;;6.30;1.00;;;;;;5079672;28;20465;-58
2022/02/18 06:57:45;;;;;;;16.20;4.87;;;6.30;1.00;;;;;;5078120;28;20554;-59
2022/02/18 07:00:15;;;;;;;12.73;5.10;;;6.30;99.90;;;;;;5079363;28;20590;-57
2022/02/18 07:02:42;;;;;;;13.90;4.60;;;6.30;1.00;;;;;;5078439;28;20462;-59
2022/02/18 07:05:11;;;;;;;18.93;5.03;;;6.30;1.00;;;;;;5078803;28;20561;-57
2022/02/18 07:07:38;;;;;;;14.43;4.60;;;6.30;99.90;;;;;;5078421;28;20465;-56
2022/02/18 07:10:09;;;;;;;17.70;5.80;;;6.30;99.90;;;;;;5077711;28;20883;-60
2022/02/18 07:12:37;;;;;;;17.60;5.70;;;6.30;99.90;;;;;;5078025;28;20500;-59
2022/02/18 07:15:07;;;;;;;20.87;5.53;;;6.30;99.90;;;;;;5079048;28;20472;-55
2022/02/18 07:17:38;;;;;;;17.67;5.73;;;6.30;99.90;;;;;;5078462;28;20484;-61
2022/02/18 07:20:09;;;;;;;16.47;4.43;;;6.30;99.90;;;;;;5067414;28;20905;-60
2022/02/18 07:22:37;;;;;;;14.60;5.03;;;6.30;99.90;;;;;;5078484;28;20492;-61
2022/02/18 07:25:06;;;;;;;16.37;4.90;;;6.40;99.90;;;;;;5078922;28;20556;-60
2022/02/18 07:27:36;;;;;;;22.03;7.90;;;6.30;99.90;;;;;;5078464;28;20883;-61
2022/02/18 07:30:05;;;;;;;20.10;8.50;;;6.30;99.90;;;;;;5078259;28;20466;-55
2022/02/18 07:32:32;;;;;;;28.57;7.77;;;6.30;99.90;;;;;;5078011;28;21018;-61
2022/02/18 07:35:01;;;;;;;23.07;6.20;;;6.30;99.90;;;;;;5077349;28;20465;-61
2022/02/18 07:37:28;;;;;;;24.03;6.20;;;6.40;99.90;;;;;;5078060;28;20470;-59
2022/02/18 07:39:55;;;;;;;19.20;6.33;;;6.40;99.90;;;;;;5076719;28;20466;-61
2022/02/18 07:42:22;;;;;;;22.77;7.07;;;6.40;99.90;;;;;;5078776;28;20777;-58
2022/02/18 07:44:49;;;;;;;16.17;5.83;;;6.40;99.90;;;;;;5077972;28;20469;-60
2022/02/18 07:47:17;;;;;;;27.70;6.67;;;6.50;99.90;;;;;;5078250;28;20461;-60
2022/02/18 07:49:46;;;;;;;17.10;6.30;;;6.50;99.90;;;;;;5077649;28;20477;-57
2022/02/18 07:52:15;;;;;;;11.23;5.90;;;6.50;99.90;;;;;;5078233;28;20537;-58
2022/02/18 07:54:42;;;;;;;24.50;5.37;;;6.60;99.90;;;;;;5077581;28;20956;-61
2022/02/18 07:57:10;;;;;;;29.40;6.03;;;6.70;99.90;;;;;;5076905;28;20506;-58
2022/02/18 07:59:37;;;;;;;17.90;7.53;;;6.70;99.90;;;;;;5075499;28;20466;-59
2022/02/18 08:02:05;;;;;;;15.93;5.67;;;6.80;99.90;;;;;;5076778;28;20826;-58
2022/02/18 08:04:34;;;;;;;18.37;6.17;;;6.80;99.90;;;;;;5075900;28;20902;-62
2022/02/18 08:07:01;;;;;;;19.70;4.83;;;6.80;99.90;;;;;;5075445;28;20461;-60
2022/02/18 08:09:28;;;;;;;18.93;6.77;;;6.80;99.90;;;;;;5076732;28;20469;-59
2022/02/18 08:11:55;;;;;;;31.07;7.50;;;6.80;99.90;;;;;;5076462;28;20467;-55
2022/02/18 08:14:22;;;;;;;17.33;5.60;;;6.80;99.90;;;;;;5077755;28;20489;-57
2022/02/18 08:16:52;;;;;;;15.10;5.07;;;6.90;99.90;;;;;;5077576;28;20769;-59
2022/02/18 08:19:20;;;;;;;27.93;7.57;;;6.80;99.90;;;;;;5077532;28;20458;-58
2022/02/18 08:21:49;;;;;;;30.50;7.47;;;6.80;99.90;;;;;;5076841;28;20519;-59
2022/02/18 08:24:18;;;;;;;13.53;5.30;;;6.90;99.90;;;;;;5077339;28;20466;-57
2022/02/18 08:26:46;;;;;;;26.47;5.80;;;6.80;99.90;;;;;;5077368;28;20469;-58
2022/02/18 08:29:13;;;;;;;19.53;5.60;;;6.90;99.90;;;;;;5077731;28;20531;-60
2022/02/18 08:31:41;;;;;;;21.03;5.97;;;6.90;99.90;;;;;;5076698;28;20467;-60
2022/02/18 08:34:08;;;;;;;19.47;5.67;;;7.00;99.90;;;;;;5077362;28;20555;-62
2022/02/18 08:36:35;;;;;;;22.77;5.33;;;7.00;99.90;;;;;;5076983;28;20519;-60
2022/02/18 08:39:04;;;;;;;14.33;4.80;;;7.10;99.90;;;;;;5077178;28;20462;-61
2022/02/18 08:41:31;;;;;;;24.07;5.40;;;7.20;99.90;;;;;;5076776;28;20903;-62
2022/02/18 08:43:59;;;;;;;14.90;5.73;;;7.30;99.90;;;;;;5077122;28;20453;-62
2022/02/18 08:46:26;;;;;;;16.93;5.00;;;7.30;99.90;;;;;;5077360;28;20560;-62
2022/02/18 08:48:55;;;;;;;23.33;5.90;;;7.40;99.90;;;;;;5077125;28;20465;-62
2022/02/18 08:51:23;;;;;;;19.80;6.10;;;7.40;99.90;;;;;;5076406;28;20472;-60
2022/02/18 08:53:50;;;;;;;16.97;6.00;;;7.40;99.90;;;;;;5075871;28;20884;-59
2022/02/18 08:56:22;;;;;;;18.20;5.93;;;7.40;99.90;;;;;;5077294;28;20465;-60
2022/02/18 08:58:50;;;;;;;13.60;5.07;;;7.50;99.90;;;;;;5071909;28;20485;-59
2022/02/18 09:01:17;;;;;;;14.13;5.60;;;7.50;99.90;;;;;;5076756;28;20472;-61
2022/02/18 09:03:44;;;;;;;16.57;5.93;;;7.60;99.90;;;;;;5075822;28;20481;-59
2022/02/18 09:06:11;;;;;;;18.10;5.00;;;7.60;99.90;;;;;;5077054;28;20469;-60
2022/02/18 09:08:38;;;;;;;17.00;5.40;;;7.70;99.90;;;;;;5076318;28;20921;-60
2022/02/18 09:11:05;;;;;;;13.83;4.60;;;7.70;99.90;;;;;;5077001;28;20493;-60
2022/02/18 09:13:34;;;;;;;17.03;5.50;;;7.80;99.90;;;;;;5076431;28;20569;-59
2022/02/18 09:16:06;;;;;;;17.67;4.80;;;7.80;99.90;;;;;;5077013;28;20496;-60
2022/02/18 09:18:35;;;;;;;15.80;4.63;;;7.90;99.90;;;;;;5076568;28;20764;-59
2022/02/18 09:21:02;;;;;;;13.97;4.67;;;8.00;99.90;;;;;;5076812;28;20873;-59
2022/02/18 09:23:29;;;;;;;20.90;4.30;;;8.00;99.90;;;;;;5076479;28;20461;-60
2022/02/18 09:25:56;;;;;;;10.20;5.73;;;8.00;99.90;;;;;;5076436;28;20543;-61
2022/02/18 09:28:24;;;;;;;10.83;4.20;;;8.10;99.90;;;;;;5076771;28;20465;-59
2022/02/18 09:30:55;;;;;;;12.97;4.10;;;8.10;99.90;;;;;;5076652;28;20898;-61
2022/02/18 09:33:22;;;;;;;10.17;4.00;;;8.20;99.90;;;;;;5075974;28;20495;-61
2022/02/18 09:35:50;;;;;;;13.80;3.83;;;8.30;99.90;;;;;;5076237;28;20469;-61
2022/02/18 09:38:18;;;;;;;9.70;3.50;;;8.30;99.90;;;;;;5075910;28;20465;-61
2022/02/18 09:40:45;;;;;;;12.43;3.97;;;8.40;99.90;;;;;;5076678;28;20862;-60
2022/02/18 09:43:14;;;;;;;13.30;4.13;;;8.40;99.90;;;;;;5076188;28;20466;-60
2022/02/18 09:45:44;;;;;;;6.60;3.80;;;8.50;99.90;;;;;;5076010;28;20469;-59
2022/02/18 09:48:13;;;;;;;14.53;4.57;;;8.50;99.90;;;;;;5076859;28;20519;-59
2022/02/18 09:50:41;;;;;;;8.20;3.33;;;8.50;99.90;;;;;;5076362;28;20544;-60
2022/02/18 09:53:08;;;;;;;15.13;4.70;;;8.50;99.90;;;;;;5077409;28;20547;-60
2022/02/18 09:55:38;;;;;;;17.43;3.93;;;8.50;99.90;;;;;;5075232;28;20564;-60
2022/02/18 09:58:06;;;;;;;8.20;3.77;;;8.50;99.90;;;;;;5074736;28;20485;-60
2022/02/18 10:00:34;;;;;;;13.23;5.77;;;8.50;99.90;;;;;;5074189;28;20889;-60
2022/02/18 10:03:01;;;;;;;8.60;3.70;;;8.50;99.90;;;;;;5076994;28;20460;-61
2022/02/18 10:05:29;;;;;;;13.87;3.40;;;8.50;99.90;;;;;;5079580;28;20586;-60
2022/02/18 10:08:08;;;;;;;10.40;4.10;;;8.60;99.90;;;;;;5080959;28;20885;-60
2022/02/18 10:10:36;;;;;;;7.60;3.03;;;8.70;99.90;;;;;;5080744;28;20806;-60
2022/02/18 10:13:04;;;;;;;8.47;3.80;;;8.70;99.90;;;;;;5061941;28;20672;-61
2022/02/18 10:15:44;;;;;;;10.30;3.50;;;8.80;99.90;;;;;;5081378;28;20457;-61
2022/02/18 10:18:12;;;;;;;5.97;3.13;;;8.80;99.90;;;;;;5065273;28;20488;-62
2022/02/18 10:20:45;;;;;;;12.50;4.00;;;8.80;99.90;;;;;;5088162;28;20461;-61
2022/02/18 10:23:12;;;;;;;6.70;4.10;;;8.90;99.90;;;;;;5078952;28;20543;-61
2022/02/18 10:25:46;;;;;;;8.53;3.70;;;8.90;99.90;;;;;;5078378;28;20475;-61
2022/02/18 10:28:16;;;;;;;7.07;3.47;;;8.90;99.90;;;;;;5079481;28;20465;-62
2022/02/18 10:30:45;;;;;;;6.20;3.20;;;8.90;99.90;;;;;;5079800;28;20461;-63
2022/02/18 10:33:17;;;;;;;9.50;3.57;;;9.00;99.90;;;;;;5080269;28;20493;-62
2022/02/18 10:35:47;;;;;;;5.27;2.70;;;9.00;99.90;;;;;;5081517;28;20475;-62
2022/02/18 10:38:18;;;;;;;7.07;3.37;;;9.00;99.90;;;;;;5081664;28;20473;-62
2022/02/18 10:40:47;;;;;;;6.23;2.73;;;9.00;99.90;;;;;;5081221;28;20457;-62
2022/02/18 10:43:15;;;;;;;7.80;3.20;;;9.10;99.90;;;;;;5080176;28;20453;-62
2022/02/18 10:45:59;;;;;;;4.63;3.00;;;9.10;99.90;;;;;;5080365;28;20558;-62
2022/02/18 10:48:27;;;;;;;4.97;2.83;;;9.10;99.90;;;;;;5078661;28;20440;-62
2022/02/18 10:51:06;;;;;;;6.43;2.80;;;9.10;99.90;;;;;;5080424;28;20453;-63
2022/02/18 10:53:36;;;;;;;7.73;3.10;;;9.20;99.90;;;;;;5078197;28;20513;-63
2022/02/18 10:56:05;;;;;;;4.00;3.00;;;9.20;99.90;;;;;;5080476;28;20461;-63
2022/02/18 10:58:35;;;;;;;6.33;3.10;;;9.20;99.90;;;;;;5078976;28;20592;-63
2022/02/18 11:01:16;;;;;;;6.23;2.70;;;9.30;99.90;;;;;;5077357;28;20469;-63
2022/02/18 11:03:54;;;;;;;6.87;3.43;;;9.30;99.90;;;;;;5077889;28;20791;-63
2022/02/18 11:06:24;;;;;;;5.20;2.80;;;9.30;99.90;;;;;;5074088;28;20469;-63
2022/02/18 11:08:54;;;;;;;5.57;3.00;;;9.40;99.90;;;;;;5077778;28;20467;-63
2022/02/18 11:11:31;;;;;;;5.70;2.70;;;9.40;99.90;;;;;;5076620;28;20490;-63
2022/02/18 11:14:00;;;;;;;5.10;2.90;;;9.40;99.90;;;;;;5077772;28;20538;-63
2022/02/18 11:16:29;;;;;;;4.60;2.70;;;9.40;99.90;;;;;;5079128;28;20950;-62
2022/02/18 11:18:57;;;;;;;4.40;2.77;;;9.50;99.90;;;;;;5075677;28;20448;-63
2022/02/18 11:21:27;;;;;;;5.73;3.20;;;9.50;99.90;;;;;;5077286;28;20440;-63
2022/02/18 11:23:55;;;;;;;4.77;2.37;;;9.50;99.90;;;;;;5076606;28;20552;-63
2022/02/18 11:26:23;;;;;;;4.33;3.37;;;9.50;99.90;;;;;;5077554;28;20470;-63
2022/02/18 11:28:52;;;;;;;3.53;2.57;;;9.70;99.90;;;;;;5073357;28;20432;-63
2022/02/18 11:31:21;;;;;;;5.80;2.57;;;9.70;99.90;;;;;;5076584;28;20485;-63
2022/02/18 11:34:24;;;;;;;4.63;2.10;;;9.80;99.90;;;;;;5077222;28;20566;-64
2022/02/18 11:37:15;;;;;;;4.00;2.50;;;9.80;99.90;;;;;;5077686;28;20544;-63
2022/02/18 11:40:02;;;;;;;7.00;2.70;;;9.90;99.90;;;;;;5063838;28;20480;-64
2022/02/18 11:42:39;;;;;;;6.43;2.73;;;9.90;99.90;;;;;;5077470;28;20791;-62
2022/02/18 11:45:12;;;;;;;4.60;2.43;;;9.90;99.90;;;;;;5069097;28;20461;-63
2022/02/18 11:47:39;;;;;;;3.93;2.23;;;10.10;99.90;;;;;;5078467;28;20958;-63
2022/02/18 11:50:13;;;;;;;4.93;2.70;;;10.10;99.90;;;;;;5068159;28;20801;-63
2022/02/18 11:52:50;;;;;;;4.23;2.47;;;10.10;99.90;;;;;;5077792;28;20461;-61
2022/02/18 11:55:35;;;;;;;2.50;2.00;;;10.10;99.90;;;;;;5072580;28;20499;-61
2022/02/18 11:58:12;;;;;;;7.00;2.40;;;10.20;99.90;;;;;;5077230;28;20538;-62
2022/02/18 12:00:41;;;;;;;2.20;1.83;;;10.20;99.90;;;;;;5068928;28;20472;-61
2022/02/18 12:03:13;;;;;;;2.20;1.70;;;10.30;99.90;;;;;;5077053;28;20461;-62
2022/02/18 12:06:08;;;;;;;2.20;2.00;;;10.20;99.90;;;;;;5076349;28;20813;-61
2022/02/18 12:08:38;;;;;;;2.70;1.80;;;10.30;99.90;;;;;;5077171;28;20818;-62
2022/02/18 12:11:12;;;;;;;2.37;1.87;;;10.40;99.90;;;;;;5075961;28;20461;-62
2022/02/18 12:13:52;;;;;;;2.23;1.93;;;10.40;99.90;;;;;;5077803;28;20496;-62
2022/02/18 12:16:20;;;;;;;3.60;2.00;;;10.50;99.90;;;;;;5069612;28;20514;-62
2022/02/18 12:19:07;;;;;;;3.47;2.30;;;10.50;99.90;;;;;;5077512;28;20461;-62
2022/02/18 12:21:35;;;;;;;2.40;2.20;;;10.60;99.90;;;;;;5065706;28;20480;-62
2022/02/18 12:24:39;;;;;;;2.97;2.30;;;10.60;99.90;;;;;;5077562;28;20457;-62
2022/02/18 12:27:34;;;;;;;4.10;2.00;;;10.60;99.90;;;;;;5075750;28;20476;-61
2022/02/18 12:30:32;;;;;;;4.10;1.63;;;10.60;99.90;;;;;;5077344;28;20472;-61
2022/02/18 12:33:02;;;;;;;2.80;1.97;;;10.60;99.90;;;;;;5060938;28;20516;-60
2022/02/18 12:35:33;;;;;;;2.73;1.60;;;10.60;99.90;;;;;;5076327;28;20550;-59
2022/02/18 12:38:02;;;;;;;3.63;2.50;;;10.70;99.90;;;;;;5075870;28;20766;-62
2022/02/18 12:40:32;;;;;;;15.97;5.67;;;10.80;99.90;;;;;;5076831;28;20444;-61
2022/02/18 12:43:02;;;;;;;2.20;1.80;;;10.80;99.90;;;;;;5075846;28;20523;-60
2022/02/18 12:45:42;;;;;;;3.03;2.10;;;10.80;99.90;;;;;;5076314;28;20507;-62
2022/02/18 12:48:09;;;;;;;4.57;3.37;;;10.80;99.90;;;;;;5069738;28;20951;-61
2022/02/18 12:50:38;;;;;;;6.70;2.80;;;10.80;99.90;;;;;;5076921;28;20461;-62
2022/02/18 12:53:09;;;;;;;5.93;4.00;;;10.70;99.90;;;;;;5075069;28;20468;-61
2022/02/18 12:55:38;;;;;;;5.90;3.80;;;10.80;99.90;;;;;;5074863;28;20501;-59
2022/02/18 12:58:13;;;;;;;5.50;2.33;;;10.90;99.90;;;;;;5067299;28;20499;-62
2022/02/18 13:00:40;;;;;;;6.57;4.47;;;10.90;99.90;;;;;;5075128;28;20465;-61